createdAt,value
2023-03-11T00:00:58.714Z,999.65
2023-03-11T00:01:58.742Z,999.71
2023-03-11T00:02:58.677Z,999.71
2023-03-11T00:03:58.659Z,999.73
2023-03-11T00:04:58.766Z,999.69
2023-03-11T00:05:58.654Z,999.73
2023-03-11T00:06:58.629Z,999.80
2023-03-11T00:07:58.607Z,999.76
2023-03-11T00:08:58.617Z,999.88
2023-03-11T00:09:58.591Z,999.82
2023-03-11T00:10:58.610Z,999.89
2023-03-11T00:11:58.559Z,999.96
2023-03-11T00:12:58.558Z,999.95
2023-03-11T00:13:58.546Z,999.96
2023-03-11T00:14:58.528Z,1000.01
2023-03-11T00:15:58.506Z,1000.01
2023-03-11T00:16:58.553Z,999.98
2023-03-11T00:17:58.490Z,999.99
2023-03-11T00:18:58.475Z,999.96
2023-03-11T00:19:58.454Z,999.96
2023-03-11T00:20:59.399Z,1000.04
2023-03-11T00:21:59.387Z,1000.00
2023-03-11T00:22:58.616Z,1000.01
2023-03-11T00:23:58.403Z,1000.07
2023-03-11T00:24:58.409Z,1000.05
2023-03-11T00:25:58.388Z,1000.07
2023-03-11T00:26:58.370Z,1000.10
2023-03-11T00:27:58.361Z,1000.13
2023-03-11T00:28:58.372Z,1000.11
2023-03-11T00:29:58.332Z,1000.15
2023-03-11T00:30:58.356Z,1000.13
2023-03-11T00:31:58.310Z,1000.14
2023-03-11T00:32:58.292Z,1000.11
2023-03-11T00:33:58.280Z,1000.13
2023-03-11T00:34:58.295Z,1000.14
2023-03-11T00:35:58.280Z,1000.17
2023-03-11T00:36:58.233Z,1000.19
2023-03-11T00:37:58.232Z,1000.22
2023-03-11T00:38:58.248Z,1000.20
2023-03-11T00:39:58.200Z,1000.27
2023-03-11T00:40:58.213Z,1000.27
2023-03-11T00:41:58.177Z,1000.33
2023-03-11T00:42:58.165Z,1000.33
2023-03-11T00:43:58.146Z,1000.36
2023-03-11T00:44:58.135Z,1000.41
2023-03-11T00:45:58.221Z,1000.40
2023-03-11T00:46:58.140Z,1000.45
2023-03-11T00:47:58.108Z,1000.39
2023-03-11T00:48:58.085Z,1000.43
2023-03-11T00:49:58.068Z,1000.44
2023-03-11T00:50:58.056Z,1000.44
2023-03-11T00:51:58.047Z,1000.49
2023-03-11T00:52:58.137Z,1000.47
2023-03-11T00:53:58.020Z,1000.46
2023-03-11T00:54:57.998Z,1000.50
2023-03-11T00:55:57.990Z,1000.56
2023-03-11T00:56:58.937Z,1000.66
2023-03-11T00:57:57.971Z,1000.57
2023-03-11T00:58:57.981Z,1000.71
2023-03-11T00:59:57.942Z,1000.70
2023-03-11T01:00:57.961Z,1000.67
2023-03-11T01:01:57.914Z,1000.65
2023-03-11T01:02:57.902Z,1000.64
2023-03-11T01:03:57.883Z,1000.73
2023-03-11T01:04:58.851Z,1000.72
2023-03-11T01:05:57.856Z,1000.75
2023-03-11T01:06:57.850Z,1000.77
2023-03-11T01:07:57.838Z,1000.74
2023-03-11T01:08:57.817Z,1000.74
2023-03-11T01:09:57.805Z,1000.71
2023-03-11T01:10:57.823Z,1000.77
2023-03-11T01:11:57.802Z,1000.75
2023-03-11T01:12:57.764Z,1000.74
2023-03-11T01:13:57.760Z,1000.71
2023-03-11T01:14:57.752Z,1000.74
2023-03-11T01:15:57.744Z,1000.79
2023-03-11T01:16:57.829Z,1000.79
2023-03-11T01:17:57.719Z,1000.77
2023-03-11T01:18:57.700Z,1000.83
2023-03-11T01:19:57.679Z,1000.78
2023-03-11T01:20:57.661Z,1000.85
2023-03-11T01:21:57.654Z,1000.85
2023-03-11T01:22:57.749Z,1000.87
2023-03-11T01:23:57.632Z,1000.91
2023-03-11T01:24:57.636Z,1000.91
2023-03-11T01:25:57.634Z,1000.93
2023-03-11T01:26:57.621Z,1000.96
2023-03-11T01:27:57.599Z,1000.95
2023-03-11T01:28:57.629Z,1000.98
2023-03-11T01:29:57.588Z,1001.01
2023-03-11T01:30:58.497Z,1001.08
2023-03-11T01:31:58.475Z,1001.12
2023-03-11T01:32:57.508Z,1001.03
2023-03-11T01:33:57.506Z,1001.12
2023-03-11T01:34:57.515Z,1001.12
2023-03-11T01:35:57.509Z,1001.13
2023-03-11T01:36:58.405Z,1001.13
2023-03-11T01:37:57.453Z,1001.15
2023-03-11T01:38:57.428Z,1001.17
2023-03-11T01:39:57.416Z,1001.15
2023-03-11T01:40:57.426Z,1001.17
2023-03-11T01:41:57.429Z,1001.16
2023-03-11T01:42:57.366Z,1001.23
2023-03-11T01:43:57.367Z,1001.23
2023-03-11T01:44:57.347Z,1001.21
2023-03-11T01:45:57.353Z,1001.21
2023-03-11T01:46:57.378Z,1001.22
2023-03-11T01:47:57.308Z,1001.19
2023-03-11T01:48:57.322Z,1001.17
2023-03-11T01:49:57.290Z,1001.22
2023-03-11T01:50:57.289Z,1001.22
2023-03-11T01:51:57.261Z,1001.23
2023-03-11T01:52:57.317Z,1001.24
2023-03-11T01:53:57.240Z,1001.22
2023-03-11T01:54:57.224Z,1001.19
2023-03-11T01:55:57.212Z,1001.18
2023-03-11T01:56:57.205Z,1001.19
2023-03-11T01:57:57.182Z,1001.22
2023-03-11T01:58:57.197Z,1001.26
2023-03-11T01:59:57.162Z,1001.25
2023-03-11T02:00:57.141Z,1001.27
2023-03-11T02:01:57.166Z,1001.28
2023-03-11T02:02:57.153Z,1001.29
2023-03-11T02:03:57.101Z,1001.30
2023-03-11T02:04:57.153Z,1001.31
2023-03-11T02:05:57.080Z,1001.37
2023-03-11T02:06:58.015Z,1001.43
2023-03-11T02:07:57.056Z,1001.38
2023-03-11T02:08:57.989Z,1001.41
2023-03-11T02:09:57.025Z,1001.38
2023-03-11T02:10:57.131Z,1001.43
2023-03-11T02:11:57.001Z,1001.39
2023-03-11T02:12:56.980Z,1001.45
2023-03-11T02:13:56.971Z,1001.47
2023-03-11T02:14:56.962Z,1001.42
2023-03-11T02:15:56.989Z,1001.44
2023-03-11T02:16:56.964Z,1001.50
2023-03-11T02:17:56.941Z,1001.45
2023-03-11T02:18:56.905Z,1001.42
2023-03-11T02:19:56.906Z,1001.40
2023-03-11T02:20:56.889Z,1001.45
2023-03-11T02:21:56.878Z,1001.43
2023-03-11T02:22:56.894Z,1001.42
2023-03-11T02:23:56.856Z,1001.44
2023-03-11T02:24:56.832Z,1001.48
2023-03-11T02:25:56.821Z,1001.46
2023-03-11T02:26:56.802Z,1001.51
2023-03-11T02:27:56.804Z,1001.54
2023-03-11T02:28:56.883Z,1001.52
2023-03-11T02:29:56.847Z,1001.46
2023-03-11T02:30:56.755Z,1001.46
2023-03-11T02:31:56.813Z,1001.47
2023-03-11T02:32:56.735Z,1001.49
2023-03-11T02:33:56.732Z,1001.45
2023-03-11T02:34:56.737Z,1001.52
2023-03-11T02:35:56.731Z,1001.46
2023-03-11T02:36:56.685Z,1001.49
2023-03-11T02:37:56.675Z,1001.49
2023-03-11T02:38:56.649Z,1001.44
2023-03-11T02:39:56.650Z,1001.45
2023-03-11T02:40:56.720Z,1001.48
2023-03-11T02:41:56.620Z,1001.49
2023-03-11T02:42:57.560Z,1001.48
2023-03-11T02:43:56.591Z,1001.53
2023-03-11T02:44:56.570Z,1001.51
2023-03-11T02:45:57.522Z,1001.55
2023-03-11T02:46:56.739Z,1001.53
2023-03-11T02:47:56.562Z,1001.52
2023-03-11T02:48:56.525Z,1001.57
2023-03-11T02:49:56.520Z,1001.57
2023-03-11T02:50:56.502Z,1001.61
2023-03-11T02:51:56.488Z,1001.57
2023-03-11T02:52:56.504Z,1001.62
2023-03-11T02:53:56.472Z,1001.68
2023-03-11T02:54:56.439Z,1001.64
2023-03-11T02:55:56.441Z,1001.64
2023-03-11T02:56:56.416Z,1001.66
2023-03-11T02:57:56.415Z,1001.62
2023-03-11T02:58:56.419Z,1001.65
2023-03-11T02:59:56.388Z,1001.69
2023-03-11T03:00:56.411Z,1001.76
2023-03-11T03:01:56.351Z,1001.69
2023-03-11T03:02:56.339Z,1001.72
2023-03-11T03:03:56.435Z,1001.79
2023-03-11T03:04:56.340Z,1001.73
2023-03-11T03:05:56.302Z,1001.78
2023-03-11T03:06:56.285Z,1001.78
2023-03-11T03:07:56.277Z,1001.80
2023-03-11T03:08:56.256Z,1001.77
2023-03-11T03:09:56.265Z,1001.81
2023-03-11T03:10:56.264Z,1001.82
2023-03-11T03:11:56.224Z,1001.82
2023-03-11T03:12:56.211Z,1001.83
2023-03-11T03:13:57.150Z,1001.82
2023-03-11T03:14:56.191Z,1001.81
2023-03-11T03:15:56.176Z,1001.84
2023-03-11T03:16:56.321Z,1001.86
2023-03-11T03:17:56.148Z,1001.84
2023-03-11T03:18:56.127Z,1001.87
2023-03-11T03:19:56.127Z,1001.95
2023-03-11T03:20:56.099Z,1001.89
2023-03-11T03:21:56.098Z,1001.89
2023-03-11T03:22:56.124Z,1001.89
2023-03-11T03:23:56.076Z,1001.90
2023-03-11T03:24:56.057Z,1001.95
2023-03-11T03:25:56.046Z,1001.88
2023-03-11T03:26:56.023Z,1001.92
2023-03-11T03:27:56.027Z,1001.89
2023-03-11T03:28:56.120Z,1001.97
2023-03-11T03:29:55.994Z,1001.99
2023-03-11T03:30:55.973Z,1001.99
2023-03-11T03:31:55.997Z,1002.00
2023-03-11T03:32:55.944Z,1002.04
2023-03-11T03:33:55.941Z,1002.02
2023-03-11T03:34:55.957Z,1002.00
2023-03-11T03:35:55.966Z,1002.02
2023-03-11T03:36:55.897Z,1002.06
2023-03-11T03:37:55.887Z,1002.03
2023-03-11T03:38:55.867Z,1002.06
2023-03-11T03:39:55.866Z,1002.09
2023-03-11T03:40:55.947Z,1002.08
2023-03-11T03:41:55.838Z,1002.06
2023-03-11T03:42:55.825Z,1002.06
2023-03-11T03:43:55.811Z,1002.10
2023-03-11T03:44:55.803Z,1002.14
2023-03-11T03:45:55.813Z,1002.16
2023-03-11T03:46:55.881Z,1002.16
2023-03-11T03:47:55.762Z,1002.17
2023-03-11T03:48:55.746Z,1002.16
2023-03-11T03:49:55.732Z,1002.14
2023-03-11T03:50:55.741Z,1002.17
2023-03-11T03:51:55.712Z,1002.22
2023-03-11T03:52:55.731Z,1002.21
2023-03-11T03:53:55.691Z,1002.21
2023-03-11T03:54:55.666Z,1002.23
2023-03-11T03:55:55.663Z,1002.21
2023-03-11T03:56:55.637Z,1002.22
2023-03-11T03:57:55.637Z,1002.30
2023-03-11T03:58:56.611Z,1002.29
2023-03-11T03:59:55.608Z,1002.33
2023-03-11T04:00:55.590Z,1002.35
2023-03-11T04:01:55.622Z,1002.34
2023-03-11T04:02:55.611Z,1002.30
2023-03-11T04:03:55.553Z,1002.33
2023-03-11T04:04:55.642Z,1002.33
2023-03-11T04:05:55.532Z,1002.33
2023-03-11T04:06:55.516Z,1002.41
2023-03-11T04:07:55.519Z,1002.38
2023-03-11T04:08:55.488Z,1002.47
2023-03-11T04:09:55.480Z,1002.45
2023-03-11T04:10:55.496Z,1002.46
2023-03-11T04:11:55.455Z,1002.43
2023-03-11T04:12:55.445Z,1002.45
2023-03-11T04:13:55.435Z,1002.48
2023-03-11T04:14:55.415Z,1002.53
2023-03-11T04:15:55.408Z,1002.55
2023-03-11T04:16:55.442Z,1002.56
2023-03-11T04:17:55.381Z,1002.58
2023-03-11T04:18:55.361Z,1002.60
2023-03-11T04:19:55.367Z,1002.60
2023-03-11T04:20:55.348Z,1002.64
2023-03-11T04:21:55.337Z,1002.61
2023-03-11T04:22:55.354Z,1002.60
2023-03-11T04:23:55.303Z,1002.68
2023-03-11T04:24:55.283Z,1002.64
2023-03-11T04:25:55.273Z,1002.63
2023-03-11T04:26:55.250Z,1002.62
2023-03-11T04:27:55.243Z,1002.63
2023-03-11T04:28:55.270Z,1002.65
2023-03-11T04:29:56.204Z,1002.59
2023-03-11T04:30:55.260Z,1002.66
2023-03-11T04:31:56.142Z,1002.65
2023-03-11T04:32:55.189Z,1002.63
2023-03-11T04:33:55.171Z,1002.65
2023-03-11T04:34:55.173Z,1002.71
2023-03-11T04:35:55.157Z,1002.67
2023-03-11T04:36:55.125Z,1002.68
2023-03-11T04:37:55.113Z,1002.71
2023-03-11T04:38:55.090Z,1002.76
2023-03-11T04:39:55.089Z,1002.76
2023-03-11T04:40:55.082Z,1002.78
2023-03-11T04:41:55.053Z,1002.77
2023-03-11T04:42:55.044Z,1002.75
2023-03-11T04:43:55.024Z,1002.76
2023-03-11T04:44:55.023Z,1002.78
2023-03-11T04:45:55.041Z,1002.76
2023-03-11T04:46:55.056Z,1002.83
2023-03-11T04:47:54.975Z,1002.84
2023-03-11T04:48:54.964Z,1002.89
2023-03-11T04:49:54.956Z,1002.82
2023-03-11T04:50:54.935Z,1002.90
2023-03-11T04:51:54.929Z,1002.92
2023-03-11T04:52:54.937Z,1002.94
2023-03-11T04:53:54.901Z,1002.99
2023-03-11T04:54:54.888Z,1003.00
2023-03-11T04:55:54.876Z,1003.01
2023-03-11T04:56:54.862Z,1002.95
2023-03-11T04:57:54.849Z,1003.06
2023-03-11T04:58:54.936Z,1003.03
2023-03-11T04:59:54.815Z,1003.07
2023-03-11T05:00:54.809Z,1003.01
2023-03-11T05:01:54.801Z,1003.05
2023-03-11T05:02:54.827Z,1003.03
2023-03-11T05:03:54.773Z,1003.09
2023-03-11T05:04:54.828Z,1003.11
2023-03-11T05:05:54.731Z,1003.12
2023-03-11T05:06:54.734Z,1003.18
2023-03-11T05:07:54.714Z,1003.16
2023-03-11T05:08:54.706Z,1003.15
2023-03-11T05:09:54.684Z,1003.17
2023-03-11T05:10:54.723Z,1003.19
2023-03-11T05:11:54.663Z,1003.17
2023-03-11T05:12:54.655Z,1003.16
2023-03-11T05:13:54.640Z,1003.15
2023-03-11T05:14:54.626Z,1003.21
2023-03-11T05:15:54.652Z,1003.19
2023-03-11T05:16:54.649Z,1003.25
2023-03-11T05:17:54.591Z,1003.23
2023-03-11T05:18:54.581Z,1003.27
2023-03-11T05:19:54.573Z,1003.27
2023-03-11T05:20:54.549Z,1003.25
2023-03-11T05:21:54.528Z,1003.27
2023-03-11T05:22:54.575Z,1003.30
2023-03-11T05:23:54.510Z,1003.32
2023-03-11T05:24:54.500Z,1003.31
2023-03-11T05:25:54.481Z,1003.31
2023-03-11T05:26:54.478Z,1003.32
2023-03-11T05:27:54.451Z,1003.32
2023-03-11T05:28:54.567Z,1003.35
2023-03-11T05:29:54.430Z,1003.37
2023-03-11T05:30:54.491Z,1003.39
2023-03-11T05:31:54.464Z,1003.41
2023-03-11T05:32:54.458Z,1003.44
2023-03-11T05:33:55.333Z,1003.46
2023-03-11T05:34:54.412Z,1003.51
2023-03-11T05:35:54.395Z,1003.47
2023-03-11T05:36:54.344Z,1003.54
2023-03-11T05:37:54.336Z,1003.53
2023-03-11T05:38:54.318Z,1003.57
2023-03-11T05:39:54.299Z,1003.54
2023-03-11T05:40:54.421Z,1003.60
2023-03-11T05:41:54.281Z,1003.62
2023-03-11T05:42:54.264Z,1003.59
2023-03-11T05:43:54.252Z,1003.57
2023-03-11T05:44:54.247Z,1003.58
2023-03-11T05:45:55.184Z,1003.64
2023-03-11T05:46:54.310Z,1003.62
2023-03-11T05:47:54.197Z,1003.66
2023-03-11T05:48:54.202Z,1003.69
2023-03-11T05:49:54.191Z,1003.78
2023-03-11T05:50:54.172Z,1003.72
2023-03-11T05:51:55.617Z,1003.72
2023-03-11T05:52:54.277Z,1003.69
2023-03-11T05:53:54.119Z,1003.68
2023-03-11T05:54:54.108Z,1003.71
2023-03-11T05:55:54.098Z,1003.79
2023-03-11T05:56:54.081Z,1003.70
2023-03-11T05:57:54.114Z,1003.73
2023-03-11T05:58:54.085Z,1003.69
2023-03-11T05:59:54.041Z,1003.72
2023-03-11T06:00:54.030Z,1003.72
2023-03-11T06:01:54.020Z,1003.72
2023-03-11T06:02:54.010Z,1003.79
2023-03-11T06:03:54.099Z,1003.77
2023-03-11T06:04:54.191Z,1003.79
2023-03-11T06:05:53.959Z,1003.83
2023-03-11T06:06:53.965Z,1003.86
2023-03-11T06:07:53.930Z,1003.86
2023-03-11T06:08:53.929Z,1003.88
2023-03-11T06:09:53.911Z,1003.88
2023-03-11T06:10:53.931Z,1003.88
2023-03-11T06:11:53.885Z,1003.89
2023-03-11T06:12:53.891Z,1003.90
2023-03-11T06:13:53.854Z,1003.93
2023-03-11T06:14:53.853Z,1003.88
2023-03-11T06:15:53.852Z,1003.92
2023-03-11T06:16:53.844Z,1003.84
2023-03-11T06:17:53.803Z,1003.89
2023-03-11T06:18:53.794Z,1003.87
2023-03-11T06:19:53.780Z,1003.87
2023-03-11T06:20:54.725Z,1003.91
2023-03-11T06:21:53.766Z,1003.90
2023-03-11T06:22:53.789Z,1003.90
2023-03-11T06:23:53.727Z,1003.98
2023-03-11T06:24:53.726Z,1003.97
2023-03-11T06:25:53.701Z,1003.96
2023-03-11T06:26:53.697Z,1003.89
2023-03-11T06:27:53.675Z,1003.96
2023-03-11T06:28:53.695Z,1003.99
2023-03-11T06:29:53.657Z,1004.02
2023-03-11T06:30:53.640Z,1004.08
2023-03-11T06:31:53.689Z,1004.00
2023-03-11T06:32:53.710Z,1004.05
2023-03-11T06:33:53.599Z,1004.05
2023-03-11T06:34:53.624Z,1004.09
2023-03-11T06:35:53.599Z,1004.07
2023-03-11T06:36:53.562Z,1004.05
2023-03-11T06:37:53.552Z,1004.12
2023-03-11T06:38:53.533Z,1004.13
2023-03-11T06:39:53.542Z,1004.15
2023-03-11T06:40:53.634Z,1004.17
2023-03-11T06:41:53.504Z,1004.15
2023-03-11T06:42:53.483Z,1004.20
2023-03-11T06:43:53.465Z,1004.25
2023-03-11T06:44:53.465Z,1004.28
2023-03-11T06:45:53.472Z,1004.23
2023-03-11T06:46:53.553Z,1004.32
2023-03-11T06:47:53.418Z,1004.25
2023-03-11T06:48:53.407Z,1004.29
2023-03-11T06:49:53.432Z,1004.26
2023-03-11T06:50:53.384Z,1004.27
2023-03-11T06:51:53.357Z,1004.32
2023-03-11T06:52:53.392Z,1004.32
2023-03-11T06:53:53.336Z,1004.36
2023-03-11T06:54:53.341Z,1004.35
2023-03-11T06:55:53.314Z,1004.35
2023-03-11T06:56:53.318Z,1004.41
2023-03-11T06:57:53.291Z,1004.40
2023-03-11T06:58:53.387Z,1004.48
2023-03-11T06:59:53.278Z,1004.49
2023-03-11T07:00:53.323Z,1004.48
2023-03-11T07:01:53.252Z,1004.48
2023-03-11T07:02:53.228Z,1004.49
2023-03-11T07:03:53.268Z,1004.49
2023-03-11T07:04:53.373Z,1004.52
2023-03-11T07:05:53.195Z,1004.51
2023-03-11T07:06:53.182Z,1004.51
2023-03-11T07:07:53.156Z,1004.53
2023-03-11T07:08:53.208Z,1004.50
2023-03-11T07:09:53.178Z,1004.53
2023-03-11T07:10:53.128Z,1004.58
2023-03-11T07:11:53.107Z,1004.53
2023-03-11T07:12:53.108Z,1004.58
2023-03-11T07:13:53.079Z,1004.62
2023-03-11T07:14:53.080Z,1004.64
2023-03-11T07:15:53.130Z,1004.72
2023-03-11T07:16:53.229Z,1004.71
2023-03-11T07:17:53.040Z,1004.72
2023-03-11T07:18:53.025Z,1004.71
2023-03-11T07:19:53.003Z,1004.73
2023-03-11T07:20:53.001Z,1004.77
2023-03-11T07:21:53.011Z,1004.78
2023-03-11T07:22:53.023Z,1004.83
2023-03-11T07:23:52.963Z,1004.80
2023-03-11T07:24:52.949Z,1004.74
2023-03-11T07:25:52.942Z,1004.78
2023-03-11T07:26:52.933Z,1004.79
2023-03-11T07:27:52.998Z,1004.85
2023-03-11T07:28:52.894Z,1004.84
2023-03-11T07:29:52.877Z,1004.83
2023-03-11T07:30:52.867Z,1004.88
2023-03-11T07:31:52.900Z,1004.88
2023-03-11T07:32:52.916Z,1004.89
2023-03-11T07:33:52.840Z,1004.88
2023-03-11T07:34:52.819Z,1004.93
2023-03-11T07:35:52.856Z,1004.95
2023-03-11T07:36:52.791Z,1004.93
2023-03-11T07:37:52.786Z,1004.93
2023-03-11T07:38:52.760Z,1004.91
2023-03-11T07:39:52.767Z,1004.93
2023-03-11T07:40:52.731Z,1004.97
2023-03-11T07:41:52.722Z,1004.96
2023-03-11T07:42:52.724Z,1004.98
2023-03-11T07:43:52.691Z,1004.98
2023-03-11T07:44:52.693Z,1005.00
2023-03-11T07:45:52.701Z,1005.01
2023-03-11T07:46:52.666Z,1005.07
2023-03-11T07:47:52.644Z,1005.03
2023-03-11T07:48:52.643Z,1005.07
2023-03-11T07:49:52.626Z,1005.01
2023-03-11T07:50:52.605Z,1005.03
2023-03-11T07:51:52.699Z,1005.09
2023-03-11T07:52:52.592Z,1005.08
2023-03-11T07:53:52.577Z,1005.12
2023-03-11T07:54:52.559Z,1005.14
2023-03-11T07:55:52.542Z,1005.14
2023-03-11T07:56:52.528Z,1005.22
2023-03-11T07:57:52.615Z,1005.17
2023-03-11T07:58:52.509Z,1005.24
2023-03-11T07:59:52.490Z,1005.27
2023-03-11T08:00:52.483Z,1005.28
2023-03-11T08:01:52.468Z,1005.30
2023-03-11T08:02:52.460Z,1005.36
2023-03-11T08:03:52.492Z,1005.33
2023-03-11T08:04:52.435Z,1005.36
2023-03-11T08:05:52.412Z,1005.36
2023-03-11T08:06:52.406Z,1005.37
2023-03-11T08:07:52.382Z,1005.38
2023-03-11T08:08:52.380Z,1005.38
2023-03-11T08:09:52.393Z,1005.38
2023-03-11T08:10:52.354Z,1005.41
2023-03-11T08:11:52.344Z,1005.40
2023-03-11T08:12:52.337Z,1005.42
2023-03-11T08:13:52.314Z,1005.40
2023-03-11T08:14:52.306Z,1005.46
2023-03-11T08:15:52.393Z,1005.51
2023-03-11T08:16:52.274Z,1005.55
2023-03-11T08:17:52.258Z,1005.54
2023-03-11T08:18:52.255Z,1005.53
2023-03-11T08:19:52.230Z,1005.57
2023-03-11T08:20:52.242Z,1005.60
2023-03-11T08:21:52.245Z,1005.59
2023-03-11T08:22:57.980Z,1005.62
2023-03-11T08:23:53.182Z,1005.61
2023-03-11T08:24:52.173Z,1005.67
2023-03-11T08:25:52.151Z,1005.63
2023-03-11T08:26:52.144Z,1005.65
2023-03-11T08:27:52.247Z,1005.66
2023-03-11T08:28:52.112Z,1005.63
2023-03-11T08:29:52.103Z,1005.64
2023-03-11T08:30:52.124Z,1005.66
2023-03-11T08:31:52.073Z,1005.59
2023-03-11T08:32:52.091Z,1005.64
2023-03-11T08:33:52.082Z,1005.64
2023-03-11T08:34:52.054Z,1005.68
2023-03-11T08:35:52.055Z,1005.72
2023-03-11T08:36:52.016Z,1005.70
2023-03-11T08:37:51.997Z,1005.77
2023-03-11T08:38:52.102Z,1005.81
2023-03-11T08:39:52.012Z,1005.81
2023-03-11T08:40:51.967Z,1005.79
2023-03-11T08:41:51.947Z,1005.81
2023-03-11T08:42:51.936Z,1005.84
2023-03-11T08:43:51.917Z,1005.76
2023-03-11T08:44:51.916Z,1005.84
2023-03-11T08:45:51.929Z,1005.85
2023-03-11T08:46:51.911Z,1005.82
2023-03-11T08:47:51.868Z,1005.82
2023-03-11T08:48:52.810Z,1005.86
2023-03-11T08:49:51.842Z,1005.85
2023-03-11T08:50:54.517Z,1005.85
2023-03-11T08:51:51.854Z,1005.82
2023-03-11T08:52:51.813Z,1005.83
2023-03-11T08:53:51.791Z,1005.81
2023-03-11T08:54:51.786Z,1005.81
2023-03-11T08:55:51.762Z,1005.82
2023-03-11T08:56:51.762Z,1005.84
2023-03-11T08:57:51.782Z,1005.85
2023-03-11T08:58:51.726Z,1005.82
2023-03-11T08:59:51.717Z,1005.80
2023-03-11T09:00:51.706Z,1005.79
2023-03-11T09:01:51.695Z,1005.83
2023-03-11T09:02:51.739Z,1005.79
2023-03-11T09:03:51.725Z,1005.80
2023-03-11T09:04:51.650Z,1005.82
2023-03-11T09:05:51.673Z,1005.83
2023-03-11T09:06:51.618Z,1005.82
2023-03-11T09:07:51.615Z,1005.87
2023-03-11T09:08:51.603Z,1005.86
2023-03-11T09:09:51.628Z,1005.84
2023-03-11T09:10:51.569Z,1005.90
2023-03-11T09:11:51.563Z,1005.84
2023-03-11T09:12:51.549Z,1005.89
2023-03-11T09:13:51.536Z,1005.85
2023-03-11T09:14:51.521Z,1005.83
2023-03-11T09:15:51.593Z,1005.79
2023-03-11T09:16:51.495Z,1005.84
2023-03-11T09:17:51.482Z,1005.81
2023-03-11T09:18:51.471Z,1005.81
2023-03-11T09:19:51.454Z,1005.77
2023-03-11T09:20:51.447Z,1005.84
2023-03-11T09:21:51.574Z,1005.82
2023-03-11T09:22:52.370Z,1005.76
2023-03-11T09:23:51.406Z,1005.82
2023-03-11T09:24:51.386Z,1005.79
2023-03-11T09:25:51.389Z,1005.79
2023-03-11T09:26:51.368Z,1005.84
2023-03-11T09:27:51.385Z,1005.83
2023-03-11T09:28:52.290Z,1005.85
2023-03-11T09:29:52.290Z,1005.84
2023-03-11T09:30:51.318Z,1005.85
2023-03-11T09:31:51.374Z,1005.87
2023-03-11T09:32:51.333Z,1005.89
2023-03-11T09:33:51.306Z,1005.92
2023-03-11T09:34:51.261Z,1005.91
2023-03-11T09:35:51.281Z,1005.89
2023-03-11T09:36:51.245Z,1005.93
2023-03-11T09:37:51.225Z,1005.92
2023-03-11T09:38:51.224Z,1005.94
2023-03-11T09:39:51.235Z,1005.93
2023-03-11T09:40:51.187Z,1005.96
2023-03-11T09:41:57.835Z,1005.93
2023-03-11T09:42:52.166Z,1005.91
2023-03-11T09:43:51.155Z,1005.92
2023-03-11T09:44:51.130Z,1005.96
2023-03-11T09:45:51.196Z,1006.00
2023-03-11T09:46:51.145Z,1006.00
2023-03-11T09:47:51.099Z,1006.01
2023-03-11T09:48:51.081Z,1006.03
2023-03-11T09:49:51.070Z,1006.06
2023-03-11T09:50:51.060Z,1006.12
2023-03-11T09:51:51.127Z,1006.10
2023-03-11T09:52:51.039Z,1006.10
2023-03-11T09:53:51.034Z,1006.11
2023-03-11T09:54:51.007Z,1006.18
2023-03-11T09:55:51.004Z,1006.20
2023-03-11T09:56:50.974Z,1006.19
2023-03-11T09:57:51.010Z,1006.20
2023-03-11T09:58:51.910Z,1006.16
2023-03-11T09:59:51.903Z,1006.24
2023-03-11T10:00:50.925Z,1006.20
2023-03-11T10:01:51.921Z,1006.22
2023-03-11T10:02:51.050Z,1006.16
2023-03-11T10:03:50.930Z,1006.24
2023-03-11T10:04:50.880Z,1006.25
2023-03-11T10:05:50.865Z,1006.21
2023-03-11T10:06:50.861Z,1006.26
2023-03-11T10:07:50.847Z,1006.24
2023-03-11T10:08:50.827Z,1006.27
2023-03-11T10:09:50.847Z,1006.31
2023-03-11T10:10:50.798Z,1006.33
2023-03-11T10:11:50.794Z,1006.32
2023-03-11T10:12:50.777Z,1006.28
2023-03-11T10:13:50.767Z,1006.32
2023-03-11T10:14:50.751Z,1006.32
2023-03-11T10:15:50.842Z,1006.28
2023-03-11T10:16:50.732Z,1006.31
2023-03-11T10:17:50.711Z,1006.27
2023-03-11T10:18:51.666Z,1006.30
2023-03-11T10:19:50.695Z,1006.28
2023-03-11T10:20:50.716Z,1006.30
2023-03-11T10:21:50.721Z,1006.28
2023-03-11T10:22:50.660Z,1006.25
2023-03-11T10:23:50.643Z,1006.26
2023-03-11T10:24:50.615Z,1006.29
2023-03-11T10:25:50.619Z,1006.30
2023-03-11T10:26:50.598Z,1006.26
2023-03-11T10:27:50.624Z,1006.33
2023-03-11T10:28:50.579Z,1006.35
2023-03-11T10:29:50.571Z,1006.34
2023-03-11T10:30:50.615Z,1006.42
2023-03-11T10:31:50.661Z,1006.36
2023-03-11T10:32:50.584Z,1006.39
2023-03-11T10:33:50.629Z,1006.44
2023-03-11T10:34:50.491Z,1006.46
2023-03-11T10:35:51.479Z,1006.44
2023-03-11T10:36:50.471Z,1006.42
2023-03-11T10:37:50.458Z,1006.46
2023-03-11T10:38:50.444Z,1006.39
2023-03-11T10:39:50.537Z,1006.49
2023-03-11T10:40:50.503Z,1006.50
2023-03-11T10:41:50.407Z,1006.45
2023-03-11T10:42:50.389Z,1006.48
2023-03-11T10:43:50.386Z,1006.47
2023-03-11T10:44:52.490Z,1006.54
2023-03-11T10:45:50.426Z,1006.51
2023-03-11T10:46:50.344Z,1006.52
2023-03-11T10:47:50.333Z,1006.52
2023-03-11T10:48:50.317Z,1006.52
2023-03-11T10:49:50.312Z,1006.46
2023-03-11T10:50:50.290Z,1006.51
2023-03-11T10:51:50.338Z,1006.52
2023-03-11T10:52:50.257Z,1006.45
2023-03-11T10:53:50.257Z,1006.50
2023-03-11T10:54:50.238Z,1006.54
2023-03-11T10:55:50.229Z,1006.58
2023-03-11T10:56:50.204Z,1006.55
2023-03-11T10:57:50.249Z,1006.56
2023-03-11T10:58:50.189Z,1006.55
2023-03-11T10:59:50.177Z,1006.63
2023-03-11T11:00:50.263Z,1006.65
2023-03-11T11:01:50.155Z,1006.64
2023-03-11T11:02:50.136Z,1006.65
2023-03-11T11:03:50.401Z,1006.64
2023-03-11T11:04:50.116Z,1006.68
2023-03-11T11:05:50.103Z,1006.63
2023-03-11T11:06:50.095Z,1006.67
2023-03-11T11:07:50.078Z,1006.72
2023-03-11T11:08:50.056Z,1006.72
2023-03-11T11:09:50.075Z,1006.60
2023-03-11T11:10:50.037Z,1006.66
2023-03-11T11:11:50.028Z,1006.67
2023-03-11T11:12:50.015Z,1006.66
2023-03-11T11:13:49.990Z,1006.67
2023-03-11T11:14:49.995Z,1006.62
2023-03-11T11:15:50.010Z,1006.62
2023-03-11T11:16:50.038Z,1006.62
2023-03-11T11:17:49.952Z,1006.59
2023-03-11T11:18:49.951Z,1006.57
2023-03-11T11:19:49.926Z,1006.57
2023-03-11T11:20:49.922Z,1006.54
2023-03-11T11:21:49.945Z,1006.55
2023-03-11T11:22:49.889Z,1006.55
2023-03-11T11:23:49.867Z,1006.53
2023-03-11T11:24:49.897Z,1006.53
2023-03-11T11:25:49.846Z,1006.57
2023-03-11T11:26:49.828Z,1006.53
2023-03-11T11:27:49.925Z,1006.50
2023-03-11T11:28:49.801Z,1006.50
2023-03-11T11:29:49.799Z,1006.53
2023-03-11T11:30:49.829Z,1006.53
2023-03-11T11:31:49.777Z,1006.51
2023-03-11T11:32:49.775Z,1006.52
2023-03-11T11:33:49.810Z,1006.50
2023-03-11T11:34:49.730Z,1006.50
2023-03-11T11:35:49.764Z,1006.53
2023-03-11T11:36:49.709Z,1006.44
2023-03-11T11:37:49.702Z,1006.51
2023-03-11T11:38:49.671Z,1006.49
2023-03-11T11:39:49.710Z,1006.50
2023-03-11T11:40:49.643Z,1006.50
2023-03-11T11:41:49.641Z,1006.46
2023-03-11T11:42:49.621Z,1006.46
2023-03-11T11:43:49.612Z,1006.46
2023-03-11T11:44:49.595Z,1006.49
2023-03-11T11:45:49.738Z,1006.46
2023-03-11T11:46:49.600Z,1006.51
2023-03-11T11:47:49.570Z,1006.51
2023-03-11T11:48:49.553Z,1006.48
2023-03-11T11:49:49.533Z,1006.46
2023-03-11T11:50:49.560Z,1006.52
2023-03-11T11:51:49.543Z,1006.46
2023-03-11T11:52:50.445Z,1006.49
2023-03-11T11:53:49.487Z,1006.54
2023-03-11T11:54:49.468Z,1006.49
2023-03-11T11:55:49.460Z,1006.53
2023-03-11T11:56:50.387Z,1006.49
2023-03-11T11:57:49.538Z,1006.47
2023-03-11T11:58:49.414Z,1006.48
2023-03-11T11:59:49.411Z,1006.56
2023-03-11T12:00:49.388Z,1006.54
2023-03-11T12:01:49.377Z,1006.52
2023-03-11T12:02:49.357Z,1006.53
2023-03-11T12:03:49.386Z,1006.56
2023-03-11T12:04:49.331Z,1006.54
2023-03-11T12:05:49.339Z,1006.49
2023-03-11T12:06:49.338Z,1006.45